createdAt,value
2019-05-11T00:00:24.718Z,97243.30
2019-05-11T00:02:52.139Z,97238.34
2019-05-11T00:05:18.746Z,97243.48
2019-05-11T00:07:45.639Z,97241.62
2019-05-11T00:10:12.273Z,97234.78
2019-05-11T00:12:45.518Z,97240.75
2019-05-11T00:15:12.116Z,97236.95
2019-05-11T00:17:39.806Z,97226.55
2019-05-11T00:20:08.201Z,97221.37
2019-05-11T00:22:35.039Z,97223.68
2019-05-11T00:25:03.755Z,97218.78
2019-05-11T00:27:33.712Z,97216.84
2019-05-11T00:32:50.237Z,97225.41
2019-05-11T00:35:16.849Z,97215.12
2019-05-11T00:37:47.486Z,97216.64
2019-05-11T00:40:15.176Z,97217.64
2019-05-11T00:42:42.085Z,97213.07
2019-05-11T00:45:08.864Z,97215.15
2019-05-11T00:47:37.072Z,97220.95
2019-05-11T00:50:04.048Z,97217.59
2019-05-11T00:52:30.634Z,97213.92
2019-05-11T00:54:57.364Z,97215.16
2019-05-11T00:57:24.011Z,97211.69
2019-05-11T00:59:50.686Z,97213.04
2019-05-11T01:02:17.314Z,97210.81
2019-05-11T01:04:43.975Z,97214.68
2019-05-11T01:07:10.786Z,97216.23
2019-05-11T01:09:37.751Z,97218.48
2019-05-11T01:12:04.692Z,97212.91
2019-05-11T01:14:36.789Z,97220.38
2019-05-11T01:17:03.688Z,97215.10
2019-05-11T01:19:30.365Z,97214.27
2019-05-11T01:21:56.985Z,97222.53
2019-05-11T01:24:23.615Z,97220.73
2019-05-11T01:26:50.352Z,97221.22
2019-05-11T01:29:16.990Z,97216.58
2019-05-11T01:31:43.729Z,97218.73
2019-05-11T01:34:10.294Z,97219.06
2019-05-11T01:36:37.060Z,97216.73
2019-05-11T01:39:04.310Z,97223.83
2019-05-11T01:41:31.177Z,97221.92
2019-05-11T01:43:57.902Z,97224.77
2019-05-11T01:48:56.937Z,97221.41
2019-05-11T01:51:23.632Z,97228.72
2019-05-11T01:53:50.522Z,97228.97
2019-05-11T01:56:17.149Z,97226.27
2019-05-11T01:58:44.015Z,97219.66
2019-05-11T02:01:10.814Z,97221.75
2019-05-11T02:03:38.521Z,97225.71
2019-05-11T02:06:05.124Z,97225.69
2019-05-11T02:08:31.764Z,97219.86
2019-05-11T02:11:14.626Z,97222.64
2019-05-11T02:13:28.103Z,97220.45
2019-05-11T02:15:54.811Z,97225.64
2019-05-11T02:18:21.420Z,97219.75
2019-05-11T02:20:48.937Z,97219.48
2019-05-11T02:23:15.522Z,97211.45
2019-05-11T02:25:42.136Z,97217.31
2019-05-11T02:28:08.821Z,97211.64
2019-05-11T02:30:35.694Z,97203.16
2019-05-11T02:33:02.296Z,97203.67
2019-05-11T02:35:28.983Z,97209.52
2019-05-11T02:37:55.832Z,97204.37
2019-05-11T02:40:22.899Z,97207.57
2019-05-11T02:42:49.484Z,97198.96
2019-05-11T02:45:16.086Z,97198.19
2019-05-11T02:47:45.989Z,97189.28
2019-05-11T02:50:13.621Z,97188.10
2019-05-11T02:52:44.261Z,97191.88
2019-05-11T02:55:11.099Z,97190.69
2019-05-11T02:57:40.373Z,97185.69
2019-05-11T03:00:09.065Z,97183.00
2019-05-11T03:02:39.255Z,97179.84
2019-05-11T03:05:05.896Z,97174.28
2019-05-11T03:07:32.580Z,97174.87
2019-05-11T03:10:01.926Z,97172.33
2019-05-11T03:12:29.544Z,97166.63
2019-05-11T03:14:57.187Z,97169.88
2019-05-11T03:17:26.156Z,97169.66
2019-05-11T03:19:53.009Z,97159.33
2019-05-11T03:22:19.661Z,97163.05
2019-05-11T03:24:46.536Z,97164.46
2019-05-11T03:27:13.718Z,97168.28
2019-05-11T03:29:40.776Z,97172.16
2019-05-11T03:32:09.573Z,97170.27
2019-05-11T03:34:37.199Z,97165.93
2019-05-11T03:37:07.891Z,97162.92
2019-05-11T03:39:36.966Z,97171.85
2019-05-11T03:42:14.722Z,97168.38
2019-05-11T03:44:34.198Z,97175.48
2019-05-11T03:47:03.189Z,97170.53
2019-05-11T03:49:33.602Z,97173.59
2019-05-11T03:52:00.425Z,97178.65
2019-05-11T03:54:27.041Z,97178.00
2019-05-11T03:56:53.662Z,97178.88
2019-05-11T03:59:22.610Z,97181.94
2019-05-11T04:01:49.316Z,97183.89
2019-05-11T04:04:16.759Z,97186.53
2019-05-11T04:06:43.619Z,97178.95
2019-05-11T04:09:14.402Z,97174.71
2019-05-11T04:11:43.093Z,97169.89
2019-05-11T04:14:09.949Z,97172.53
2019-05-11T04:16:39.319Z,97174.22
2019-05-11T04:19:05.925Z,97174.00
2019-05-11T04:21:32.507Z,97178.48
2019-05-11T04:24:01.530Z,97182.86
2019-05-11T04:26:29.979Z,97181.25
2019-05-11T04:28:57.361Z,97176.23
2019-05-11T04:31:24.237Z,97171.15
2019-05-11T04:33:53.000Z,97173.11
2019-05-11T04:36:23.348Z,97163.89
2019-05-11T04:38:52.679Z,97165.84
2019-05-11T04:41:19.767Z,97170.45
2019-05-11T04:46:32.331Z,97181.48
2019-05-11T04:48:58.918Z,97190.05
2019-05-11T04:51:27.942Z,97189.56
2019-05-11T04:53:56.263Z,97188.84
2019-05-11T04:56:26.288Z,97184.19
2019-05-11T04:58:54.402Z,97184.91
2019-05-11T05:01:24.489Z,97177.39
2019-05-11T05:03:56.165Z,97177.39
2019-05-11T05:06:24.171Z,97172.67
2019-05-11T05:08:50.273Z,97171.50
2019-05-11T05:11:16.936Z,97169.45
2019-05-11T05:13:43.778Z,97169.23
2019-05-11T05:16:11.081Z,97178.38
2019-05-11T05:18:37.991Z,97170.08
2019-05-11T05:21:06.310Z,97173.89
2019-05-11T05:23:32.947Z,97176.77
2019-05-11T05:26:02.624Z,97169.80
2019-05-11T05:28:30.099Z,97171.07
2019-05-11T05:30:56.885Z,97177.08
2019-05-11T05:33:23.772Z,97163.31
2019-05-11T05:35:50.354Z,97157.95
2019-05-11T05:38:19.227Z,97152.28
2019-05-11T05:40:46.057Z,97154.78
2019-05-11T05:43:25.527Z,97154.56
2019-05-11T05:45:41.588Z,97148.48
2019-05-11T05:48:08.802Z,97148.48
2019-05-11T05:50:35.432Z,97143.73
2019-05-11T05:53:04.362Z,97152.04
2019-05-11T05:55:30.945Z,97151.74
2019-05-11T05:57:57.535Z,97160.33
2019-05-11T06:00:26.720Z,97153.09
2019-05-11T06:02:53.424Z,97152.70
2019-05-11T06:05:20.615Z,97154.88
2019-05-11T06:07:49.483Z,97151.48
2019-05-11T06:10:17.762Z,97151.15
2019-05-11T06:12:52.007Z,97149.75
2019-05-11T06:15:18.644Z,97149.17
2019-05-11T06:17:47.555Z,97146.53
2019-05-11T06:20:14.272Z,97146.09
2019-05-11T06:22:43.706Z,97141.73
2019-05-11T06:25:12.788Z,97143.46
2019-05-11T06:27:39.262Z,97147.20
2019-05-11T06:30:08.293Z,97146.60
2019-05-11T06:32:34.784Z,97150.19
2019-05-11T06:35:01.289Z,97130.22
2019-05-11T06:37:28.195Z,97130.58
2019-05-11T06:39:55.869Z,97126.34
2019-05-11T06:42:22.628Z,97120.05
2019-05-11T06:44:49.379Z,97120.67
2019-05-11T06:47:15.983Z,97112.31
2019-05-11T06:49:44.811Z,97107.67
2019-05-11T06:55:00.719Z,97101.83
2019-05-11T06:57:30.188Z,97095.52
2019-05-11T06:59:57.962Z,97094.41
2019-05-11T07:02:25.856Z,97100.27
2019-05-11T07:04:53.090Z,97103.64
2019-05-11T07:07:21.035Z,97104.37
2019-05-11T07:09:48.720Z,97101.88
2019-05-11T07:15:03.768Z,97099.90
2019-05-11T07:17:30.673Z,97105.78
2019-05-11T07:19:57.594Z,97113.70
2019-05-11T07:22:25.983Z,97113.62
2019-05-11T07:24:54.873Z,97117.52
2019-05-11T07:27:24.264Z,97105.25
2019-05-11T07:29:53.143Z,97102.86
2019-05-11T07:32:25.618Z,97099.11
2019-05-11T07:34:50.485Z,97097.57
2019-05-11T07:37:24.110Z,97088.01
2019-05-11T07:39:51.041Z,97086.38
2019-05-11T07:42:18.953Z,97090.70
2019-05-11T07:44:49.709Z,97081.59
2019-05-11T07:47:18.667Z,97081.05
2019-05-11T07:49:45.357Z,97083.23
2019-05-11T07:52:11.978Z,97074.97
2019-05-11T07:54:40.804Z,97072.59
2019-05-11T07:57:10.454Z,97074.23
2019-05-11T07:59:41.338Z,97064.83
2019-05-11T08:02:10.064Z,97059.73
2019-05-11T08:04:37.960Z,97061.08
2019-05-11T08:07:05.034Z,97056.27
2019-05-11T08:09:34.372Z,97051.19
2019-05-11T08:12:00.976Z,97044.75
2019-05-11T08:14:29.386Z,97047.12
2019-05-11T08:16:59.174Z,97042.86
2019-05-11T08:19:24.962Z,97034.77
2019-05-11T08:21:52.838Z,97040.91
2019-05-11T08:24:22.356Z,97031.28
2019-05-11T08:26:49.948Z,97031.23
2019-05-11T08:29:19.608Z,97029.00
2019-05-11T08:31:48.869Z,97026.20
2019-05-11T08:34:20.781Z,97028.53
2019-05-11T08:36:52.362Z,97032.07
2019-05-11T08:39:20.005Z,97037.52
2019-05-11T08:41:49.535Z,97035.31
2019-05-11T08:44:18.115Z,97031.60
2019-05-11T08:46:44.575Z,97032.09
2019-05-11T08:49:15.596Z,97030.65
2019-05-11T08:51:43.029Z,97030.97
2019-05-11T08:54:10.128Z,97023.41
2019-05-11T08:56:39.078Z,97028.06
2019-05-11T08:59:11.799Z,97027.47
2019-05-11T09:01:39.507Z,97021.91
2019-05-11T09:04:09.109Z,97015.59
2019-05-11T09:06:38.560Z,97015.22
2019-05-11T09:11:44.239Z,97015.63
2019-05-11T09:14:12.492Z,97013.23
2019-05-11T09:16:40.555Z,97006.14
2019-05-11T09:19:10.140Z,97007.61
2019-05-11T09:21:38.401Z,97015.10
2019-05-11T09:24:08.415Z,97010.03
2019-05-11T09:26:40.595Z,97014.41
2019-05-11T09:29:08.905Z,97007.86
2019-05-11T09:31:38.207Z,96997.77
2019-05-11T09:34:05.261Z,97001.91
2019-05-11T09:36:33.241Z,97000.01
2019-05-11T09:39:02.618Z,97004.38
2019-05-11T09:41:31.782Z,96995.72
2019-05-11T09:43:59.761Z,97000.10
2019-05-11T09:46:27.864Z,97003.88
2019-05-11T09:48:59.251Z,97002.91
2019-05-11T09:51:28.715Z,96996.00
2019-05-11T09:53:55.629Z,96995.54
2019-05-11T09:56:25.493Z,96992.09
2019-05-11T09:58:52.807Z,96994.81
2019-05-11T10:01:23.686Z,96993.55
2019-05-11T10:03:54.500Z,96988.05
2019-05-11T10:06:22.863Z,96987.77
2019-05-11T10:08:50.494Z,96985.74
2019-05-11T10:11:19.157Z,96982.59
2019-05-11T10:13:48.023Z,96987.55
2019-05-11T10:16:22.473Z,96978.13
2019-05-11T10:18:51.190Z,96974.84
2019-05-11T10:21:20.095Z,96976.21
2019-05-11T10:23:49.208Z,96970.77
2019-05-11T10:26:18.881Z,96974.55
2019-05-11T10:28:47.932Z,96968.55
2019-05-11T10:31:14.333Z,96971.10
2019-05-11T10:33:41.617Z,96964.90
2019-05-11T10:36:08.480Z,96957.91
2019-05-11T10:38:37.971Z,96957.12
2019-05-11T10:41:08.760Z,96961.34
2019-05-11T10:43:35.521Z,96951.63
2019-05-11T10:46:16.941Z,96944.03
2019-05-11T10:48:38.680Z,96941.39
2019-05-11T10:51:08.950Z,96937.63
2019-05-11T10:53:38.570Z,96939.77
2019-05-11T10:56:08.532Z,96939.56
2019-05-11T10:58:37.885Z,96938.23
2019-05-11T11:01:08.887Z,96936.67
2019-05-11T11:03:37.691Z,96938.34
2019-05-11T11:06:08.808Z,96931.00
2019-05-11T11:08:38.328Z,96926.62
2019-05-11T11:11:08.223Z,96933.59
2019-05-11T11:13:35.367Z,96922.71
2019-05-11T11:16:04.144Z,96915.98
2019-05-11T11:18:30.724Z,96914.90
2019-05-11T11:21:00.874Z,96909.50
2019-05-11T11:23:32.090Z,96919.81
2019-05-11T11:25:58.918Z,96918.14
2019-05-11T11:28:28.083Z,96924.07
2019-05-11T11:30:54.876Z,96915.20
2019-05-11T11:33:22.153Z,96918.51
2019-05-11T11:35:51.708Z,96906.63
2019-05-11T11:41:07.926Z,96909.16
2019-05-11T11:43:34.895Z,96907.52
2019-05-11T11:46:04.536Z,96901.40
2019-05-11T11:48:44.764Z,96903.89
2019-05-11T11:51:13.974Z,96899.52
2019-05-11T11:53:43.956Z,96892.66
2019-05-11T11:56:10.972Z,96893.64
2019-05-11T11:58:41.304Z,96881.53
2019-05-11T12:01:09.974Z,96890.19
2019-05-11T12:03:39.014Z,96887.83
2019-05-11T12:06:08.688Z,96877.06
2019-05-11T12:08:35.624Z,96877.24
2019-05-11T12:11:02.227Z,96879.44
2019-05-11T12:13:31.005Z,96874.11
2019-05-11T12:16:01.270Z,96877.34
2019-05-11T12:18:28.703Z,96867.58
2019-05-11T12:20:58.579Z,96872.42
2019-05-11T12:23:25.204Z,96863.58
2019-05-11T12:25:52.735Z,96860.91
2019-05-11T12:28:19.264Z,96858.50
2019-05-11T12:30:50.064Z,96856.81
2019-05-11T12:33:18.787Z,96852.77
2019-05-11T12:35:45.419Z,96847.05
2019-05-11T12:38:11.733Z,96846.69
2019-05-11T12:40:38.843Z,96838.27
2019-05-11T12:43:11.120Z,96839.17
2019-05-11T12:45:38.281Z,96838.96
2019-05-11T12:48:09.039Z,96832.48
2019-05-11T12:50:37.921Z,96835.23
2019-05-11T12:53:05.433Z,96840.77
2019-05-11T12:55:34.694Z,96831.52
2019-05-11T12:58:01.437Z,96828.48
2019-05-11T13:00:31.294Z,96817.94
2019-05-11T13:02:58.539Z,96811.06
2019-05-11T13:05:25.737Z,96814.34
2019-05-11T13:07:55.074Z,96811.29
2019-05-11T13:10:25.316Z,96812.97
2019-05-11T13:12:58.677Z,96807.65
2019-05-11T13:15:28.153Z,96801.55
2019-05-11T13:17:58.181Z,96795.42
2019-05-11T13:20:29.413Z,96803.97
2019-05-11T13:22:58.730Z,96798.73
2019-05-11T13:25:28.114Z,96803.72
2019-05-11T13:27:58.069Z,96799.87
2019-05-11T13:30:24.882Z,96786.50
2019-05-11T13:32:58.022Z,96779.81
2019-05-11T13:35:32.533Z,96781.64
2019-05-11T13:37:58.953Z,96775.44
2019-05-11T13:40:27.595Z,96770.09
2019-05-11T13:42:58.199Z,96766.05
2019-05-11T13:45:28.595Z,96767.62
2019-05-11T13:47:59.199Z,96760.09
2019-05-11T13:50:29.643Z,96758.09
2019-05-11T13:52:58.537Z,96754.55
2019-05-11T13:55:25.332Z,96747.94
2019-05-11T13:57:54.638Z,96744.27
2019-05-11T14:00:24.216Z,96750.94
2019-05-11T14:02:50.104Z,96743.24
2019-05-11T14:05:18.013Z,96740.19
2019-05-11T14:07:48.073Z,96736.69
2019-05-11T14:10:14.087Z,96727.84
2019-05-11T14:12:43.220Z,96730.57
2019-05-11T14:15:12.646Z,96723.66
2019-05-11T14:17:39.935Z,96726.16
2019-05-11T14:20:09.231Z,96720.38
2019-05-11T14:22:38.490Z,96728.91
2019-05-11T14:25:07.448Z,96724.59
2019-05-11T14:27:35.412Z,96714.20
2019-05-11T14:30:04.037Z,96718.39
2019-05-11T14:32:30.477Z,96711.69
2019-05-11T14:35:02.718Z,96706.16
2019-05-11T14:37:31.849Z,96706.98
2019-05-11T14:40:00.400Z,96702.11
2019-05-11T14:42:30.710Z,96704.56
2019-05-11T14:44:59.106Z,96696.52
2019-05-11T14:47:28.319Z,96705.37
2019-05-11T14:49:57.895Z,96699.98
2019-05-11T14:52:24.878Z,96695.79
2019-05-11T14:54:51.564Z,96686.47
2019-05-11T14:57:20.847Z,96683.70
2019-05-11T14:59:48.243Z,96681.80
2019-05-11T15:02:15.246Z,96680.35
2019-05-11T15:04:45.211Z,96678.73
2019-05-11T15:07:12.361Z,96684.72
2019-05-11T15:09:40.851Z,96684.21
2019-05-11T15:12:09.305Z,96678.09
2019-05-11T15:14:37.813Z,96676.36
2019-05-11T15:17:08.315Z,96676.23
2019-05-11T15:19:35.105Z,96668.16
2019-05-11T15:22:01.755Z,96679.34
2019-05-11T15:24:30.329Z,96670.63
2019-05-11T15:26:59.107Z,96670.37
2019-05-11T15:29:28.680Z,96662.54
2019-05-11T15:31:57.895Z,96668.92
2019-05-11T15:34:24.616Z,96668.84
2019-05-11T15:36:52.693Z,96659.69
2019-05-11T15:39:22.462Z,96666.52
2019-05-11T15:42:06.477Z,96667.59
2019-05-11T15:44:22.805Z,96662.27
2019-05-11T15:46:49.590Z,96661.70
2019-05-11T15:49:17.962Z,96660.96
2019-05-11T15:51:49.090Z,96659.83
2019-05-11T15:54:19.497Z,96663.70
2019-05-11T15:56:47.309Z,96661.94
2019-05-11T15:59:15.291Z,96678.52
2019-05-11T16:01:48.778Z,96675.50
2019-05-11T16:04:18.215Z,96671.67
2019-05-11T16:06:49.405Z,96671.50
2019-05-11T16:09:18.731Z,96666.80
2019-05-11T16:11:47.884Z,96664.91
2019-05-11T16:14:16.514Z,96655.02
2019-05-11T16:16:43.377Z,96656.72
2019-05-11T16:19:15.124Z,96657.77
2019-05-11T16:21:41.904Z,96651.77
2019-05-11T16:24:09.712Z,96651.84
2019-05-11T16:26:37.741Z,96655.02
2019-05-11T16:29:11.029Z,96653.27
2019-05-11T16:31:37.719Z,96648.52
2019-05-11T16:34:08.076Z,96648.43
2019-05-11T16:36:38.818Z,96650.91
2019-05-11T16:39:10.104Z,96647.04
2019-05-11T16:41:38.816Z,96646.81
2019-05-11T16:44:08.116Z,96641.60
2019-05-11T16:46:38.940Z,96651.62
2019-05-11T16:49:06.185Z,96648.94
2019-05-11T16:51:38.683Z,96655.25
2019-05-11T16:54:07.551Z,96660.91
2019-05-11T16:56:34.422Z,96662.80
2019-05-11T16:59:02.107Z,96661.96
2019-05-11T17:01:31.368Z,96663.55
2019-05-11T17:03:58.326Z,96669.56
2019-05-11T17:06:31.706Z,96673.02
2019-05-11T17:08:58.016Z,96668.07
2019-05-11T17:11:28.963Z,96663.21
2019-05-11T17:13:58.867Z,96667.41
2019-05-11T17:16:28.519Z,96660.77
2019-05-11T17:18:55.264Z,96661.59
2019-05-11T17:21:23.216Z,96664.75
2019-05-11T17:23:51.677Z,96670.01
2019-05-11T17:26:19.233Z,96672.42
2019-05-11T17:28:45.882Z,96671.98
2019-05-11T17:31:15.453Z,96679.34
2019-05-11T17:36:37.240Z,96700.05
2019-05-11T17:39:13.197Z,96700.05
2019-05-11T17:41:39.998Z,96705.02
2019-05-11T17:44:08.063Z,96711.13
2019-05-11T17:46:38.576Z,96721.78
2019-05-11T17:49:05.003Z,96728.61
2019-05-11T17:51:32.933Z,96732.20
2019-05-11T17:54:00.834Z,96734.81
2019-05-11T17:56:38.280Z,96738.66
2019-05-11T17:59:04.368Z,96742.80
2019-05-11T18:01:33.509Z,96754.91
2019-05-11T18:04:00.923Z,96758.47
2019-05-11T18:06:30.334Z,96764.66
2019-05-11T18:09:01.641Z,96770.42
2019-05-11T18:11:30.465Z,96770.70
2019-05-11T18:13:59.979Z,96769.52
2019-05-11T18:16:27.860Z,96773.17
2019-05-11T18:18:58.694Z,96780.95
2019-05-11T18:21:28.055Z,96785.33
2019-05-11T18:23:56.044Z,96791.02
2019-05-11T18:26:24.852Z,96796.31
2019-05-11T18:31:42.241Z,96804.73
2019-05-11T18:34:11.344Z,96808.55
2019-05-11T18:36:44.577Z,96802.41
2019-05-11T18:39:13.845Z,96812.02
2019-05-11T18:41:43.683Z,96840.80
2019-05-11T18:44:13.342Z,96848.67
2019-05-11T18:46:39.595Z,96858.47
2019-05-11T18:49:06.437Z,96865.75
2019-05-11T18:51:33.316Z,96888.20
2019-05-11T18:54:01.526Z,96902.95
2019-05-11T18:56:28.654Z,96916.33
2019-05-11T18:58:55.576Z,96925.33
2019-05-11T19:01:22.418Z,96929.78
2019-05-11T19:03:50.053Z,96950.02
2019-05-11T19:06:23.235Z,96965.55
2019-05-11T19:08:50.579Z,96998.28
2019-05-11T19:11:18.464Z,96999.24
2019-05-11T19:13:49.380Z,97001.98
2019-05-11T19:16:18.887Z,97012.41
2019-05-11T19:18:48.227Z,97016.86
2019-05-11T19:21:15.024Z,97011.91
2019-05-11T19:23:41.625Z,97004.16
2019-05-11T19:26:17.760Z,97018.98
2019-05-11T19:28:42.228Z,97018.19
2019-05-11T19:31:11.181Z,97017.20
2019-05-11T19:33:38.230Z,97026.51
2019-05-11T19:36:04.860Z,97032.73
2019-05-11T19:38:33.848Z,97032.91
2019-05-11T19:41:02.443Z,97045.45
2019-05-11T19:43:29.894Z,97048.83
2019-05-11T19:45:58.140Z,97046.30
2019-05-11T19:48:29.729Z,97054.48
2019-05-11T19:51:06.614Z,97056.74
2019-05-11T19:53:24.667Z,97053.19
2019-05-11T19:55:51.299Z,97058.33
2019-05-11T19:58:19.571Z,97066.58
2019-05-11T20:00:49.658Z,97067.45
2019-05-11T20:03:18.224Z,97073.56
2019-05-11T20:05:44.966Z,97086.56
2019-05-11T20:08:14.315Z,97085.47
2019-05-11T20:10:42.605Z,97087.64
2019-05-11T20:13:11.457Z,97092.90
2019-05-11T20:15:40.825Z,97092.90
2019-05-11T20:18:11.779Z,97102.80
2019-05-11T20:20:39.554Z,97103.69
2019-05-11T20:23:07.823Z,97104.31
2019-05-11T20:25:34.866Z,97101.94
2019-05-11T20:28:02.555Z,97100.39
2019-05-11T20:30:31.593Z,97106.76
2019-05-11T20:32:58.159Z,97104.13
2019-05-11T20:35:27.944Z,97108.77
2019-05-11T20:37:58.075Z,97099.02
2019-05-11T20:40:22.998Z,97093.50
2019-05-11T20:42:49.596Z,97092.78
2019-05-11T20:45:18.574Z,97091.08
2019-05-11T20:47:48.418Z,97089.20
2019-05-11T20:50:15.606Z,97085.69
2019-05-11T20:52:42.168Z,97084.97
2019-05-11T20:55:11.217Z,97083.35
2019-05-11T20:57:39.195Z,97063.33
2019-05-11T21:00:08.106Z,97069.45
2019-05-11T21:02:34.764Z,97068.38
2019-05-11T21:05:03.510Z,97069.37
2019-05-11T21:07:31.832Z,97075.42
2019-05-11T21:10:00.211Z,97067.27
2019-05-11T21:12:28.801Z,97072.09
2019-05-11T21:14:57.887Z,97069.22
2019-05-11T21:17:24.133Z,97074.34
2019-05-11T21:19:52.878Z,97067.37
2019-05-11T21:22:19.754Z,97070.05
2019-05-11T21:24:49.389Z,97079.13
2019-05-11T21:27:20.153Z,97086.31
2019-05-11T21:29:49.080Z,97084.77
2019-05-11T21:32:20.112Z,97088.87
2019-05-11T21:34:48.906Z,97090.17
2019-05-11T21:37:18.249Z,97085.06
2019-05-11T21:39:44.838Z,97082.01
2019-05-11T21:42:11.353Z,97085.70
2019-05-11T21:44:39.977Z,97087.03
2019-05-11T21:47:08.887Z,97089.05
2019-05-11T21:49:37.848Z,97094.02
2019-05-11T21:52:07.791Z,97107.44
2019-05-11T21:54:34.496Z,97124.47
2019-05-11T21:57:01.416Z,97132.83
2019-05-11T21:59:29.046Z,97138.05
2019-05-11T22:01:57.860Z,97138.77
2019-05-11T22:04:24.840Z,97150.66
2019-05-11T22:06:52.580Z,97154.84
2019-05-11T22:09:21.648Z,97162.31
2019-05-11T22:11:48.683Z,97163.11
2019-05-11T22:14:17.671Z,97167.78
2019-05-11T22:16:44.247Z,97175.59
2019-05-11T22:19:13.046Z,97185.95
2019-05-11T22:21:39.416Z,97186.48
2019-05-11T22:24:05.928Z,97193.66
2019-05-11T22:26:32.761Z,97199.95
2019-05-11T22:29:00.367Z,97211.65
2019-05-11T22:31:28.036Z,97211.25
2019-05-11T22:33:54.779Z,97213.67
2019-05-11T22:36:21.936Z,97216.63
2019-05-11T22:38:48.770Z,97216.03
2019-05-11T22:41:17.858Z,97210.97
2019-05-11T22:43:43.910Z,97212.16
2019-05-11T22:46:10.426Z,97205.06
2019-05-11T22:48:38.114Z,97204.13
2019-05-11T22:51:04.698Z,97207.52
2019-05-11T22:53:43.819Z,97201.67
2019-05-11T22:55:59.475Z,97205.73
2019-05-11T22:58:25.975Z,97199.53
2019-05-11T23:00:52.470Z,97185.83
2019-05-11T23:03:22.524Z,97192.69
2019-05-11T23:05:47.751Z,97191.19
2019-05-11T23:08:14.392Z,97195.27
2019-05-11T23:10:40.903Z,97205.49
2019-05-11T23:13:08.267Z,97200.16
2019-05-11T23:15:40.094Z,97197.64
2019-05-11T23:18:04.084Z,97194.45
2019-05-11T23:20:30.624Z,97193.77
2019-05-11T23:23:00.722Z,97193.91
2019-05-11T23:25:28.644Z,97203.14
2019-05-11T23:27:54.799Z,97199.95
2019-05-11T23:30:21.309Z,97201.66
2019-05-11T23:32:48.502Z,97201.73
2019-05-11T23:35:15.388Z,97191.58
2019-05-11T23:37:42.664Z,97192.62
2019-05-11T23:40:09.396Z,97204.66
2019-05-11T23:42:38.054Z,97194.81
2019-05-11T23:45:04.467Z,97189.77
2019-05-11T23:47:30.961Z,97184.89
2019-05-11T23:49:58.619Z,97179.78
2019-05-11T23:52:25.063Z,97170.08
2019-05-11T23:54:51.574Z,97171.35
2019-05-11T23:57:18.724Z,97169.13
2019-05-11T23:59:47.716Z,97171.42
